Terminal Aerodrome Forecast
Issued by NWS Billings, MT

Home | Current Version | Previous Version | Graphics & Text | Print | Product List | Glossary On
Versions: 1 2 3 4 5 6 7 8 9 10 11 12 13 14 15 16 17 18 19 20 21 22 23 24 25
681
FTUS45 KBYZ 222328
TAFMLS
TAF
KMLS 222328Z 2300/2324 08005KT P6SM VCTS BKN100CB
     FM230600 15015KT P6SM VCSH SCT100
     FM230900 31020G27KT P6SM FEW100
     FM231200 29020G25KT P6SM SKC=

USA.gov is the U.S. government's official web portal to all federal, state and local government web resources and services.